Lebanon, OH (45036)

12:44 PM EST on February 08, 2016 (GMT -0500)
NW Lebanon, Turtle Creek | | Change Station
CLOSE
Current Station
Personal Weather Station
Location: Lebanon, OH
Elevation: 791 ft
Nearby Weather Stations
Active Advisory: Winter Weather Advisory

Elev 791 ft 39.44 °N, 84.22 °W | Updated 8 minutes ago

Overcast
Overcast
36.5 °F
Feels Like 34 °F
N
3.7
Wind Variable Wind from WSW

Today
High -- | Low -- °F
--% Chance of Precip.
Yesterday
High -- | Low -- °F
Precip. -- in
Pressure 29.63 in
Visibility 9.0 miles
Clouds Overcast 600 ft
Windchill 34 °F
Dew Point 35 °F
Humidity 94%
Rainfall 0.13 in
Snow Depth Not available.
7:37 AM 6:04 PM
New Moon, 0% visible
SPECI KMGY 081704Z AUTO 25007KT 9SM -RA OVC006 02/01 A2963 RMK AO2 UPE04RAB04 CIG 004V010 P0000 T00220006
Pressure 29.63 in
Visibility 9.0 miles
Clouds Overcast 600 ft
Windchill 34 °F
Dew Point 35 °F
Humidity 94%
Rainfall 0.13 in
Snow Depth Not available.
7:37 AM 6:04 PM
New Moon, 0% visible
SPECI KMGY 081704Z AUTO 25007KT 9SM -RA OVC006 02/01 A2963 RMK AO2 UPE04RAB04 CIG 004V010 P0000 T00220006

10-Day Weather Forecast

Almanac

Astronomy

Feb. 08, 2016 Rise Set
Actual Time
Civil Twilight
Nautical Twilight
Astronomical Twilight
Moon
Length of Visible Light
Length of Day
Tomorrow will be .
, % of the Moon is Illuminated

Today's Extremes

State Highs State Lows

Community

WunderPhotos

Upload Photos

1,891,476 photos uploaded!

WunderBlog® & News

Nearby

Air Quality

  Air Quality AQ Index Pollutant
Not available.

Snow Depth

Station Depth Elevation

Earthquake Activity

City Distance Mag. Time & Date
Minimum magnitude displayed is 2.5.

Coastal Water Temperatures

Place Temperature

Stations

Nearby Weather Stations

Station Location Temp. Windchill Dew Point Humidity Wind Precip. Elev Updated Type
                   

Watches & Warnings

Winter Weather Advisory
Issued: 11:48 AM EST Feb. 8, 2016 – National Weather Service

... Winter Weather Advisory remains in effect from 6 PM this
evening to 6 am EST Wednesday...

* hazard types... snow showers.

* Accumulations... snow accumulation of 2 to 4 inches.

* Timing... rain and snow showers will transition over to all snow
showers this evening. Occasional snow showers will then continue
tonight through Tuesday night.

* Impacts... travel difficulties are expected due to reduced
visibilities and snow accumulations.

Precautionary/preparedness actions...

Remember... a Winter Weather Advisory for snow means that periods
of snow will cause primarily travel difficulties. Be prepared for
snow covered roads and limited visibilities... and use caution
while driving. Stay tuned to NOAA Weather Radio or your favorite
source of information for the latest updates. Additional details
can also be found at www.Weather.Gov/iln as well as on our
facebook and twitter pages.